Pacific, Missouri
Current Conditions -  °F | °C
As of 7:54 AM on Monday 20 Oct 2014 (Local Time) from KSUS Reporting Station
Few Clouds Few Clouds  
Wind Chill: 55°   Ceiling: Unl
Heat Index: 55°   Visibility: 10mi
Dew Point: 49°   Wind: 9mph
Humidity: 80%   Direction: 250°WSW
Pressure: 29.97"   Gusts: NA
Location:  38.48°N, 90.74°W
Report Text: KSUS 201254Z 25008KT 10SM FEW100 13/09 A2997 RMK AO2 SLP147 T01280094
Loading
Personal Weather Stations






























Interactive Weather Map
Tropical Storm Tracking
New forecast layout! Learn more

10-Day Weather Forecast

Advertisements
Track Severe Weather on mobile